sensor_id;sensor_type;location;lat;lon;timestamp;P1;durP1;ratioP1;P2;durP2;ratioP2
20639;SDS011;10479;53.524;9.846;2024-02-21T00:01:03;69.78;;;20.13;;
20639;SDS011;10479;53.524;9.846;2024-02-21T00:03:29;65.05;;;22.02;;
20639;SDS011;10479;53.524;9.846;2024-02-21T00:05:54;62.22;;;22.33;;
20639;SDS011;10479;53.524;9.846;2024-02-21T00:08:20;53.67;;;20.50;;
20639;SDS011;10479;53.524;9.846;2024-02-21T00:10:45;58.22;;;20.38;;
20639;SDS011;10479;53.524;9.846;2024-02-21T00:13:11;64.35;;;22.85;;
20639;SDS011;10479;53.524;9.846;2024-02-21T00:15:37;59.30;;;21.88;;
20639;SDS011;10479;53.524;9.846;2024-02-21T00:18:02;65.28;;;21.90;;
20639;SDS011;10479;53.524;9.846;2024-02-21T00:20:28;61.30;;;21.70;;
20639;SDS011;10479;53.524;9.846;2024-02-21T00:22:53;61.30;;;21.50;;
20639;SDS011;10479;53.524;9.846;2024-02-21T00:25:19;65.05;;;22.13;;
20639;SDS011;10479;53.524;9.846;2024-02-21T00:27:45;62.63;;;22.83;;
20639;SDS011;10479;53.524;9.846;2024-02-21T00:30:10;63.47;;;21.35;;
20639;SDS011;10479;53.524;9.846;2024-02-21T00:32:36;64.97;;;22.10;;
20639;SDS011;10479;53.524;9.846;2024-02-21T00:35:02;64.82;;;23.58;;
20639;SDS011;10479;53.524;9.846;2024-02-21T00:37:27;59.35;;;22.48;;
20639;SDS011;10479;53.524;9.846;2024-02-21T00:39:56;66.57;;;22.95;;
20639;SDS011;10479;53.524;9.846;2024-02-21T00:42:21;63.60;;;23.83;;
20639;SDS011;10479;53.524;9.846;2024-02-21T00:44:46;55.25;;;22.83;;
20639;SDS011;10479;53.524;9.846;2024-02-21T00:47:12;73.07;;;24.33;;
20639;SDS011;10479;53.524;9.846;2024-02-21T00:49:37;58.38;;;22.73;;
20639;SDS011;10479;53.524;9.846;2024-02-21T00:52:03;70.05;;;24.52;;
20639;SDS011;10479;53.524;9.846;2024-02-21T00:54:28;67.00;;;25.35;;
20639;SDS011;10479;53.524;9.846;2024-02-21T00:56:54;62.58;;;25.27;;
20639;SDS011;10479;53.524;9.846;2024-02-21T00:59:19;68.47;;;24.60;;
20639;SDS011;10479;53.524;9.846;2024-02-21T01:01:44;66.32;;;24.13;;
20639;SDS011;10479;53.524;9.846;2024-02-21T01:04:10;66.30;;;23.90;;
20639;SDS011;10479;53.524;9.846;2024-02-21T01:06:35;66.97;;;25.13;;
20639;SDS011;10479;53.524;9.846;2024-02-21T01:09:01;64.93;;;24.45;;
20639;SDS011;10479;53.524;9.846;2024-02-21T01:11:26;61.40;;;24.55;;
20639;SDS011;10479;53.524;9.846;2024-02-21T01:13:52;62.17;;;24.88;;
20639;SDS011;10479;53.524;9.846;2024-02-21T01:16:18;82.20;;;25.42;;
20639;SDS011;10479;53.524;9.846;2024-02-21T01:18:43;61.78;;;23.65;;
20639;SDS011;10479;53.524;9.846;2024-02-21T01:21:09;55.70;;;22.95;;
20639;SDS011;10479;53.524;9.846;2024-02-21T01:23:35;67.85;;;24.40;;
20639;SDS011;10479;53.524;9.846;2024-02-21T01:26:01;72.63;;;25.83;;
20639;SDS011;10479;53.524;9.846;2024-02-21T01:28:27;65.57;;;24.27;;
20639;SDS011;10479;53.524;9.846;2024-02-21T01:30:52;64.53;;;25.80;;
20639;SDS011;10479;53.524;9.846;2024-02-21T01:33:17;66.57;;;26.55;;
20639;SDS011;10479;53.524;9.846;2024-02-21T01:35:44;72.50;;;25.73;;
20639;SDS011;10479;53.524;9.846;2024-02-21T01:38:09;76.57;;;26.45;;
20639;SDS011;10479;53.524;9.846;2024-02-21T01:40:35;69.70;;;28.23;;
20639;SDS011;10479;53.524;9.846;2024-02-21T01:43:02;77.25;;;29.95;;
20639;SDS011;10479;53.524;9.846;2024-02-21T01:45:27;90.78;;;30.38;;
20639;SDS011;10479;53.524;9.846;2024-02-21T01:47:53;93.78;;;30.42;;
20639;SDS011;10479;53.524;9.846;2024-02-21T01:50:18;83.85;;;30.55;;
20639;SDS011;10479;53.524;9.846;2024-02-21T01:52:45;82.85;;;31.55;;
20639;SDS011;10479;53.524;9.846;2024-02-21T01:55:12;85.47;;;30.15;;
20639;SDS011;10479;53.524;9.846;2024-02-21T01:57:38;85.88;;;31.42;;
20639;SDS011;10479;53.524;9.846;2024-02-21T02:00:05;86.75;;;32.40;;
20639;SDS011;10479;53.524;9.846;2024-02-21T02:02:31;91.20;;;33.50;;
20639;SDS011;10479;53.524;9.846;2024-02-21T02:04:57;84.93;;;31.02;;
20639;SDS011;10479;53.524;9.846;2024-02-21T02:07:22;101.00;;;33.00;;
20639;SDS011;10479;53.524;9.846;2024-02-21T02:09:48;101.32;;;30.98;;
20639;SDS011;10479;53.524;9.846;2024-02-21T02:12:13;95.47;;;31.52;;
20639;SDS011;10479;53.524;9.846;2024-02-21T02:14:39;87.40;;;32.92;;
20639;SDS011;10479;53.524;9.846;2024-02-21T02:17:04;99.28;;;33.20;;
20639;SDS011;10479;53.524;9.846;2024-02-21T02:19:30;94.72;;;33.03;;
20639;SDS011;10479;53.524;9.846;2024-02-21T02:21:58;89.93;;;31.50;;
20639;SDS011;10479;53.524;9.846;2024-02-21T02:24:27;90.25;;;29.23;;
20639;SDS011;10479;53.524;9.846;2024-02-21T02:26:53;98.30;;;32.63;;
20639;SDS011;10479;53.524;9.846;2024-02-21T02:29:18;89.63;;;32.38;;
20639;SDS011;10479;53.524;9.846;2024-02-21T02:31:44;90.80;;;27.48;;
20639;SDS011;10479;53.524;9.846;2024-02-21T02:34:09;85.57;;;29.58;;
20639;SDS011;10479;53.524;9.846;2024-02-21T02:36:35;88.57;;;31.08;;
20639;SDS011;10479;53.524;9.846;2024-02-21T02:39:00;85.53;;;31.08;;
20639;SDS011;10479;53.524;9.846;2024-02-21T02:41:26;82.80;;;31.65;;
20639;SDS011;10479;53.524;9.846;2024-02-21T02:43:51;83.15;;;29.23;;
20639;SDS011;10479;53.524;9.846;2024-02-21T02:46:17;78.22;;;31.17;;
20639;SDS011;10479;53.524;9.846;2024-02-21T02:48:42;80.45;;;30.70;;
20639;SDS011;10479;53.524;9.846;2024-02-21T02:51:08;78.90;;;29.55;;
20639;SDS011;10479;53.524;9.846;2024-02-21T02:53:33;85.30;;;29.35;;
20639;SDS011;10479;53.524;9.846;2024-02-21T02:55:58;76.60;;;30.23;;
20639;SDS011;10479;53.524;9.846;2024-02-21T02:58:24;79.80;;;29.63;;
20639;SDS011;10479;53.524;9.846;2024-02-21T03:00:49;80.85;;;28.30;;
20639;SDS011;10479;53.524;9.846;2024-02-21T03:03:15;79.63;;;29.55;;
20639;SDS011;10479;53.524;9.846;2024-02-21T03:05:40;79.10;;;28.80;;
20639;SDS011;10479;53.524;9.846;2024-02-21T03:08:05;74.90;;;28.15;;
20639;SDS011;10479;53.524;9.846;2024-02-21T03:10:35;75.00;;;27.80;;
20639;SDS011;10479;53.524;9.846;2024-02-21T03:13:00;70.45;;;27.35;;
20639;SDS011;10479;53.524;9.846;2024-02-21T03:15:26;75.43;;;27.88;;
20639;SDS011;10479;53.524;9.846;2024-02-21T03:17:51;68.07;;;26.55;;
20639;SDS011;10479;53.524;9.846;2024-02-21T03:20:17;61.65;;;24.85;;
20639;SDS011;10479;53.524;9.846;2024-02-21T03:22:44;64.22;;;26.75;;
20639;SDS011;10479;53.524;9.846;2024-02-21T03:25:10;73.07;;;27.90;;
20639;SDS011;10479;53.524;9.846;2024-02-21T03:27:36;72.80;;;24.92;;
20639;SDS011;10479;53.524;9.846;2024-02-21T03:30:01;62.80;;;26.02;;
20639;SDS011;10479;53.524;9.846;2024-02-21T03:32:27;73.93;;;26.42;;
20639;SDS011;10479;53.524;9.846;2024-02-21T03:34:54;65.07;;;26.33;;
20639;SDS011;10479;53.524;9.846;2024-02-21T03:37:20;64.07;;;24.75;;
20639;SDS011;10479;53.524;9.846;2024-02-21T03:39:45;57.05;;;23.73;;
20639;SDS011;10479;53.524;9.846;2024-02-21T03:42:11;61.60;;;25.38;;
20639;SDS011;10479;53.524;9.846;2024-02-21T03:44:36;67.25;;;23.40;;
20639;SDS011;10479;53.524;9.846;2024-02-21T03:47:02;58.72;;;23.42;;
20639;SDS011;10479;53.524;9.846;2024-02-21T03:49:27;65.65;;;24.50;;
20639;SDS011;10479;53.524;9.846;2024-02-21T03:51:52;59.67;;;24.48;;
20639;SDS011;10479;53.524;9.846;2024-02-21T03:54:18;58.72;;;23.88;;
20639;SDS011;10479;53.524;9.846;2024-02-21T03:56:44;68.80;;;25.98;;
20639;SDS011;10479;53.524;9.846;2024-02-21T03:59:09;71.75;;;27.23;;
20639;SDS011;10479;53.524;9.846;2024-02-21T04:01:35;66.28;;;27.15;;
20639;SDS011;10479;53.524;9.846;2024-02-21T04:04:01;71.13;;;25.88;;
20639;SDS011;10479;53.524;9.846;2024-02-21T04:06:26;72.82;;;27.77;;
20639;SDS011;10479;53.524;9.846;2024-02-21T04:08:52;79.75;;;26.63;;
20639;SDS011;10479;53.524;9.846;2024-02-21T04:11:17;79.00;;;27.77;;
20639;SDS011;10479;53.524;9.846;2024-02-21T04:13:44;75.45;;;27.38;;
20639;SDS011;10479;53.524;9.846;2024-02-21T04:16:10;73.00;;;27.00;;
20639;SDS011;10479;53.524;9.846;2024-02-21T04:18:35;75.43;;;27.08;;
20639;SDS011;10479;53.524;9.846;2024-02-21T04:21:01;63.05;;;26.30;;
20639;SDS011;10479;53.524;9.846;2024-02-21T04:23:26;68.75;;;27.70;;
20639;SDS011;10479;53.524;9.846;2024-02-21T04:25:51;71.13;;;27.33;;
20639;SDS011;10479;53.524;9.846;2024-02-21T04:28:17;83.68;;;27.42;;
20639;SDS011;10479;53.524;9.846;2024-02-21T04:30:42;69.18;;;27.08;;
20639;SDS011;10479;53.524;9.846;2024-02-21T04:33:08;65.85;;;25.90;;
20639;SDS011;10479;53.524;9.846;2024-02-21T04:35:35;62.95;;;25.23;;
20639;SDS011;10479;53.524;9.846;2024-02-21T04:38:01;71.80;;;26.60;;
20639;SDS011;10479;53.524;9.846;2024-02-21T04:40:26;75.53;;;27.42;;
20639;SDS011;10479;53.524;9.846;2024-02-21T04:42:52;71.32;;;28.90;;
20639;SDS011;10479;53.524;9.846;2024-02-21T04:45:17;76.50;;;26.10;;
20639;SDS011;10479;53.524;9.846;2024-02-21T04:47:43;65.50;;;25.73;;
20639;SDS011;10479;53.524;9.846;2024-02-21T04:50:08;73.15;;;26.40;;
20639;SDS011;10479;53.524;9.846;2024-02-21T04:52:34;68.88;;;25.70;;
20639;SDS011;10479;53.524;9.846;2024-02-21T04:54:59;74.15;;;26.50;;
20639;SDS011;10479;53.524;9.846;2024-02-21T04:57:24;68.72;;;27.00;;
20639;SDS011;10479;53.524;9.846;2024-02-21T04:59:50;60.17;;;23.27;;
20639;SDS011;10479;53.524;9.846;2024-02-21T05:02:15;68.63;;;26.23;;
20639;SDS011;10479;53.524;9.846;2024-02-21T05:04:42;59.50;;;23.90;;
20639;SDS011;10479;53.524;9.846;2024-02-21T05:07:07;67.88;;;24.90;;
20639;SDS011;10479;53.524;9.846;2024-02-21T05:09:33;63.13;;;23.58;;
20639;SDS011;10479;53.524;9.846;2024-02-21T05:11:58;56.78;;;23.27;;
20639;SDS011;10479;53.524;9.846;2024-02-21T05:14:24;66.95;;;25.02;;
20639;SDS011;10479;53.524;9.846;2024-02-21T05:16:50;60.63;;;22.83;;
20639;SDS011;10479;53.524;9.846;2024-02-21T05:19:15;58.83;;;22.27;;
20639;SDS011;10479;53.524;9.846;2024-02-21T05:21:41;56.28;;;20.17;;
20639;SDS011;10479;53.524;9.846;2024-02-21T05:24:06;52.78;;;19.98;;
20639;SDS011;10479;53.524;9.846;2024-02-21T05:26:31;49.63;;;19.48;;
20639;SDS011;10479;53.524;9.846;2024-02-21T05:28:57;56.97;;;19.58;;
20639;SDS011;10479;53.524;9.846;2024-02-21T05:31:24;51.08;;;17.63;;
20639;SDS011;10479;53.524;9.846;2024-02-21T05:33:49;44.70;;;17.67;;
20639;SDS011;10479;53.524;9.846;2024-02-21T05:36:15;50.38;;;17.73;;
20639;SDS011;10479;53.524;9.846;2024-02-21T05:38:40;47.05;;;16.95;;
20639;SDS011;10479;53.524;9.846;2024-02-21T05:41:06;43.33;;;16.83;;
20639;SDS011;10479;53.524;9.846;2024-02-21T05:43:31;43.35;;;16.50;;
20639;SDS011;10479;53.524;9.846;2024-02-21T05:45:57;43.05;;;15.68;;
20639;SDS011;10479;53.524;9.846;2024-02-21T05:48:22;44.58;;;15.75;;
20639;SDS011;10479;53.524;9.846;2024-02-21T05:50:48;43.13;;;16.77;;
20639;SDS011;10479;53.524;9.846;2024-02-21T05:53:13;37.90;;;14.85;;
20639;SDS011;10479;53.524;9.846;2024-02-21T05:55:39;37.10;;;14.70;;
20639;SDS011;10479;53.524;9.846;2024-02-21T05:58:05;36.45;;;14.65;;
20639;SDS011;10479;53.524;9.846;2024-02-21T06:00:31;39.22;;;15.07;;
20639;SDS011;10479;53.524;9.846;2024-02-21T06:02:57;42.28;;;14.75;;
20639;SDS011;10479;53.524;9.846;2024-02-21T06:05:22;37.55;;;14.55;;
20639;SDS011;10479;53.524;9.846;2024-02-21T06:07:47;40.22;;;14.75;;
20639;SDS011;10479;53.524;9.846;2024-02-21T06:10:13;34.47;;;14.35;;
20639;SDS011;10479;53.524;9.846;2024-02-21T06:12:39;35.83;;;14.13;;
20639;SDS011;10479;53.524;9.846;2024-02-21T06:15:04;36.38;;;13.15;;
20639;SDS011;10479;53.524;9.846;2024-02-21T06:17:30;39.53;;;13.88;;
20639;SDS011;10479;53.524;9.846;2024-02-21T06:19:56;34.88;;;13.80;;
20639;SDS011;10479;53.524;9.846;2024-02-21T06:22:22;29.67;;;12.55;;
20639;SDS011;10479;53.524;9.846;2024-02-21T06:24:47;33.42;;;13.07;;
20639;SDS011;10479;53.524;9.846;2024-02-21T06:27:12;30.55;;;11.23;;
20639;SDS011;10479;53.524;9.846;2024-02-21T06:29:40;33.28;;;11.98;;
20639;SDS011;10479;53.524;9.846;2024-02-21T06:32:05;31.70;;;11.85;;
20639;SDS011;10479;53.524;9.846;2024-02-21T06:34:31;28.55;;;11.13;;
20639;SDS011;10479;53.524;9.846;2024-02-21T06:36:56;32.05;;;10.93;;
20639;SDS011;10479;53.524;9.846;2024-02-21T06:39:22;28.10;;;11.32;;
20639;SDS011;10479;53.524;9.846;2024-02-21T06:41:48;26.50;;;10.55;;
20639;SDS011;10479;53.524;9.846;2024-02-21T06:44:15;27.50;;;11.48;;
20639;SDS011;10479;53.524;9.846;2024-02-21T06:46:41;28.48;;;11.02;;
20639;SDS011;10479;53.524;9.846;2024-02-21T06:49:06;26.65;;;10.43;;
20639;SDS011;10479;53.524;9.846;2024-02-21T06:51:32;26.38;;;10.80;;
20639;SDS011;10479;53.524;9.846;2024-02-21T06:53:58;28.13;;;10.93;;
20639;SDS011;10479;53.524;9.846;2024-02-21T06:56:24;28.27;;;11.02;;
20639;SDS011;10479;53.524;9.846;2024-02-21T06:58:57;25.63;;;11.32;;
20639;SDS011;10479;53.524;9.846;2024-02-21T07:01:23;28.63;;;11.98;;
20639;SDS011;10479;53.524;9.846;2024-02-21T07:03:49;25.48;;;11.02;;
20639;SDS011;10479;53.524;9.846;2024-02-21T07:06:14;24.15;;;10.60;;
20639;SDS011;10479;53.524;9.846;2024-02-21T07:08:40;25.90;;;10.68;;
20639;SDS011;10479;53.524;9.846;2024-02-21T07:11:06;29.48;;;10.35;;
20639;SDS011;10479;53.524;9.846;2024-02-21T07:13:32;27.88;;;11.63;;
20639;SDS011;10479;53.524;9.846;2024-02-21T07:15:57;28.52;;;11.13;;
20639;SDS011;10479;53.524;9.846;2024-02-21T07:18:23;27.80;;;11.07;;
20639;SDS011;10479;53.524;9.846;2024-02-21T07:20:50;30.05;;;11.75;;
20639;SDS011;10479;53.524;9.846;2024-02-21T07:23:16;28.98;;;11.88;;
20639;SDS011;10479;53.524;9.846;2024-02-21T07:25:41;28.50;;;10.35;;
20639;SDS011;10479;53.524;9.846;2024-02-21T07:28:07;27.50;;;11.32;;
20639;SDS011;10479;53.524;9.846;2024-02-21T07:30:32;27.33;;;10.52;;
20639;SDS011;10479;53.524;9.846;2024-02-21T07:32:58;29.23;;;11.38;;
20639;SDS011;10479;53.524;9.846;2024-02-21T07:35:23;30.80;;;11.57;;
20639;SDS011;10479;53.524;9.846;2024-02-21T07:37:49;28.40;;;11.43;;
20639;SDS011;10479;53.524;9.846;2024-02-21T07:40:15;28.58;;;11.75;;
20639;SDS011;10479;53.524;9.846;2024-02-21T07:42:41;27.20;;;10.98;;
20639;SDS011;10479;53.524;9.846;2024-02-21T07:45:09;30.30;;;13.30;;
20639;SDS011;10479;53.524;9.846;2024-02-21T07:47:35;29.92;;;12.93;;
20639;SDS011;10479;53.524;9.846;2024-02-21T07:50:02;19.13;;;8.35;;
20639;SDS011;10479;53.524;9.846;2024-02-21T07:52:28;16.65;;;7.38;;
20639;SDS011;10479;53.524;9.846;2024-02-21T07:54:53;18.60;;;7.10;;
20639;SDS011;10479;53.524;9.846;2024-02-21T07:57:19;17.02;;;7.18;;
20639;SDS011;10479;53.524;9.846;2024-02-21T07:59:44;20.08;;;8.02;;
20639;SDS011;10479;53.524;9.846;2024-02-21T08:02:12;15.43;;;6.13;;
20639;SDS011;10479;53.524;9.846;2024-02-21T08:04:38;19.55;;;7.38;;
20639;SDS011;10479;53.524;9.846;2024-02-21T08:07:03;15.68;;;5.85;;
20639;SDS011;10479;53.524;9.846;2024-02-21T08:09:29;16.23;;;6.32;;
20639;SDS011;10479;53.524;9.846;2024-02-21T08:11:55;17.40;;;5.85;;
20639;SDS011;10479;53.524;9.846;2024-02-21T08:14:20;12.07;;;4.18;;
20639;SDS011;10479;53.524;9.846;2024-02-21T08:16:46;16.75;;;3.75;;
20639;SDS011;10479;53.524;9.846;2024-02-21T08:19:12;11.00;;;3.45;;
20639;SDS011;10479;53.524;9.846;2024-02-21T08:21:37;14.98;;;3.63;;
20639;SDS011;10479;53.524;9.846;2024-02-21T08:24:03;15.68;;;3.17;;
20639;SDS011;10479;53.524;9.846;2024-02-21T08:26:29;12.85;;;3.75;;
20639;SDS011;10479;53.524;9.846;2024-02-21T08:28:58;13.85;;;3.60;;
20639;SDS011;10479;53.524;9.846;2024-02-21T08:31:28;19.30;;;3.90;;
20639;SDS011;10479;53.524;9.846;2024-02-21T08:33:59;22.65;;;4.88;;
20639;SDS011;10479;53.524;9.846;2024-02-21T08:36:28;19.73;;;3.77;;
20639;SDS011;10479;53.524;9.846;2024-02-21T08:39:01;24.65;;;4.05;;
20639;SDS011;10479;53.524;9.846;2024-02-21T08:41:30;20.95;;;4.18;;
20639;SDS011;10479;53.524;9.846;2024-02-21T08:43:56;22.00;;;4.15;;
20639;SDS011;10479;53.524;9.846;2024-02-21T08:46:25;17.30;;;4.00;;
20639;SDS011;10479;53.524;9.846;2024-02-21T08:48:51;28.92;;;3.97;;
20639;SDS011;10479;53.524;9.846;2024-02-21T08:51:17;22.27;;;4.38;;
20639;SDS011;10479;53.524;9.846;2024-02-21T08:53:45;23.30;;;3.55;;
20639;SDS011;10479;53.524;9.846;2024-02-21T08:56:11;18.35;;;3.63;;
20639;SDS011;10479;53.524;9.846;2024-02-21T08:58:37;22.52;;;3.15;;
20639;SDS011;10479;53.524;9.846;2024-02-21T09:01:03;18.45;;;3.78;;
20639;SDS011;10479;53.524;9.846;2024-02-21T09:03:33;16.60;;;3.33;;
20639;SDS011;10479;53.524;9.846;2024-02-21T09:05:59;19.50;;;4.10;;
20639;SDS011;10479;53.524;9.846;2024-02-21T09:08:25;19.35;;;2.95;;
20639;SDS011;10479;53.524;9.846;2024-02-21T09:10:51;23.02;;;3.28;;
20639;SDS011;10479;53.524;9.846;2024-02-21T09:13:17;16.42;;;3.78;;
20639;SDS011;10479;53.524;9.846;2024-02-21T09:15:42;21.38;;;3.17;;
20639;SDS011;10479;53.524;9.846;2024-02-21T09:18:08;17.60;;;3.95;;
20639;SDS011;10479;53.524;9.846;2024-02-21T09:20:34;20.75;;;3.85;;
20639;SDS011;10479;53.524;9.846;2024-02-21T09:22:59;20.58;;;3.38;;
20639;SDS011;10479;53.524;9.846;2024-02-21T09:25:25;18.17;;;3.72;;
20639;SDS011;10479;53.524;9.846;2024-02-21T09:27:50;17.58;;;3.58;;
20639;SDS011;10479;53.524;9.846;2024-02-21T09:30:17;23.02;;;3.42;;
20639;SDS011;10479;53.524;9.846;2024-02-21T09:32:42;22.20;;;3.35;;
20639;SDS011;10479;53.524;9.846;2024-02-21T09:35:08;13.70;;;4.30;;
20639;SDS011;10479;53.524;9.846;2024-02-21T09:37:33;17.58;;;4.25;;
20639;SDS011;10479;53.524;9.846;2024-02-21T09:39:59;13.95;;;3.55;;
20639;SDS011;10479;53.524;9.846;2024-02-21T09:42:29;13.23;;;3.75;;
20639;SDS011;10479;53.524;9.846;2024-02-21T09:45:19;17.75;;;4.40;;
20639;SDS011;10479;53.524;9.846;2024-02-21T09:48:23;15.20;;;4.68;;
20639;SDS011;10479;53.524;9.846;2024-02-21T09:50:47;18.35;;;6.43;;
20639;SDS011;10479;53.524;9.846;2024-02-21T09:53:12;21.92;;;10.43;;
20639;SDS011;10479;53.524;9.846;2024-02-21T09:55:41;28.58;;;12.27;;
20639;SDS011;10479;53.524;9.846;2024-02-21T09:58:08;34.25;;;13.80;;
20639;SDS011;10479;53.524;9.846;2024-02-21T10:00:37;35.35;;;14.85;;
20639;SDS011;10479;53.524;9.846;2024-02-21T10:03:03;38.38;;;15.68;;
20639;SDS011;10479;53.524;9.846;2024-02-21T10:05:35;45.00;;;18.33;;
20639;SDS011;10479;53.524;9.846;2024-02-21T10:08:01;41.92;;;17.20;;
20639;SDS011;10479;53.524;9.846;2024-02-21T10:10:27;47.28;;;18.27;;
20639;SDS011;10479;53.524;9.846;2024-02-21T10:12:54;50.60;;;19.55;;
20639;SDS011;10479;53.524;9.846;2024-02-21T10:15:21;48.65;;;20.20;;
20639;SDS011;10479;53.524;9.846;2024-02-21T10:17:47;49.35;;;19.75;;
20639;SDS011;10479;53.524;9.846;2024-02-21T10:20:13;52.20;;;21.00;;
20639;SDS011;10479;53.524;9.846;2024-02-21T10:22:40;53.67;;;19.58;;
20639;SDS011;10479;53.524;9.846;2024-02-21T10:25:09;57.83;;;21.45;;
20639;SDS011;10479;53.524;9.846;2024-02-21T10:27:35;66.30;;;22.52;;
20639;SDS011;10479;53.524;9.846;2024-02-21T10:30:01;65.80;;;20.52;;
20639;SDS011;10479;53.524;9.846;2024-02-21T10:32:27;58.75;;;21.35;;
20639;SDS011;10479;53.524;9.846;2024-02-21T10:35:00;54.60;;;20.60;;
20639;SDS011;10479;53.524;9.846;2024-02-21T10:37:26;58.58;;;20.63;;
20639;SDS011;10479;53.524;9.846;2024-02-21T10:39:53;50.03;;;19.85;;
20639;SDS011;10479;53.524;9.846;2024-02-21T10:42:18;54.67;;;19.42;;
20639;SDS011;10479;53.524;9.846;2024-02-21T10:44:46;53.55;;;19.88;;
20639;SDS011;10479;53.524;9.846;2024-02-21T10:47:16;55.42;;;21.65;;
20639;SDS011;10479;53.524;9.846;2024-02-21T10:49:46;57.67;;;20.60;;
20639;SDS011;10479;53.524;9.846;2024-02-21T10:57:23;50.05;;;19.65;;
20639;SDS011;10479;53.524;9.846;2024-02-21T10:59:50;45.50;;;18.80;;
20639;SDS011;10479;53.524;9.846;2024-02-21T11:02:16;47.30;;;18.92;;
20639;SDS011;10479;53.524;9.846;2024-02-21T11:04:41;49.15;;;19.02;;
20639;SDS011;10479;53.524;9.846;2024-02-21T11:07:07;42.33;;;16.10;;
20639;SDS011;10479;53.524;9.846;2024-02-21T11:09:33;43.63;;;16.80;;
20639;SDS011;10479;53.524;9.846;2024-02-21T11:12:02;34.22;;;15.48;;
20639;SDS011;10479;53.524;9.846;2024-02-21T11:14:29;38.25;;;15.10;;
20639;SDS011;10479;53.524;9.846;2024-02-21T11:16:57;39.40;;;14.88;;
20639;SDS011;10479;53.524;9.846;2024-02-21T11:19:27;40.58;;;14.43;;
20639;SDS011;10479;53.524;9.846;2024-02-21T11:21:54;35.13;;;14.05;;
20639;SDS011;10479;53.524;9.846;2024-02-21T11:24:30;36.42;;;14.35;;
20639;SDS011;10479;53.524;9.846;2024-02-21T11:27:42;34.00;;;12.88;;
20639;SDS011;10479;53.524;9.846;2024-02-21T11:29:55;36.25;;;13.25;;
20639;SDS011;10479;53.524;9.846;2024-02-21T11:32:21;36.22;;;13.60;;
20639;SDS011;10479;53.524;9.846;2024-02-21T11:35:20;32.50;;;13.38;;
20639;SDS011;10479;53.524;9.846;2024-02-21T11:37:44;32.70;;;12.57;;
20639;SDS011;10479;53.524;9.846;2024-02-21T11:40:11;29.92;;;12.43;;
20639;SDS011;10479;53.524;9.846;2024-02-21T11:42:37;39.85;;;13.70;;
20639;SDS011;10479;53.524;9.846;2024-02-21T11:45:03;36.40;;;13.23;;
20639;SDS011;10479;53.524;9.846;2024-02-21T11:47:29;30.30;;;12.90;;
20639;SDS011;10479;53.524;9.846;2024-02-21T11:49:54;36.50;;;13.23;;
20639;SDS011;10479;53.524;9.846;2024-02-21T11:52:23;33.80;;;13.55;;
20639;SDS011;10479;53.524;9.846;2024-02-21T11:54:50;32.75;;;12.43;;
20639;SDS011;10479;53.524;9.846;2024-02-21T11:57:16;33.38;;;12.40;;
20639;SDS011;10479;53.524;9.846;2024-02-21T11:59:42;29.55;;;12.70;;
20639;SDS011;10479;53.524;9.846;2024-02-21T12:02:10;32.30;;;12.63;;
20639;SDS011;10479;53.524;9.846;2024-02-21T12:04:36;27.08;;;11.45;;
20639;SDS011;10479;53.524;9.846;2024-02-21T12:07:01;34.10;;;13.13;;
20639;SDS011;10479;53.524;9.846;2024-02-21T12:09:28;35.22;;;14.23;;
20639;SDS011;10479;53.524;9.846;2024-02-21T12:12:01;31.73;;;12.77;;
20639;SDS011;10479;53.524;9.846;2024-02-21T12:14:30;28.58;;;12.45;;
20639;SDS011;10479;53.524;9.846;2024-02-21T12:16:57;29.50;;;12.57;;
20639;SDS011;10479;53.524;9.846;2024-02-21T12:19:23;31.40;;;12.63;;
20639;SDS011;10479;53.524;9.846;2024-02-21T12:21:48;31.73;;;13.85;;
20639;SDS011;10479;53.524;9.846;2024-02-21T12:24:23;35.78;;;12.77;;
20639;SDS011;10479;53.524;9.846;2024-02-21T12:26:49;30.98;;;12.45;;
20639;SDS011;10479;53.524;9.846;2024-02-21T12:29:15;30.05;;;10.55;;
20639;SDS011;10479;53.524;9.846;2024-02-21T12:31:41;36.38;;;13.23;;
20639;SDS011;10479;53.524;9.846;2024-02-21T12:34:06;29.90;;;13.63;;
20639;SDS011;10479;53.524;9.846;2024-02-21T12:36:35;38.45;;;14.52;;
20639;SDS011;10479;53.524;9.846;2024-02-21T12:39:01;30.58;;;13.23;;
20639;SDS011;10479;53.524;9.846;2024-02-21T12:41:28;38.67;;;13.70;;
20639;SDS011;10479;53.524;9.846;2024-02-21T12:43:55;39.17;;;15.32;;
20639;SDS011;10479;53.524;9.846;2024-02-21T12:46:21;38.85;;;14.43;;
20639;SDS011;10479;53.524;9.846;2024-02-21T12:48:49;39.47;;;14.63;;
20639;SDS011;10479;53.524;9.846;2024-02-21T12:51:15;39.95;;;15.60;;
20639;SDS011;10479;53.524;9.846;2024-02-21T12:53:41;37.90;;;13.80;;
20639;SDS011;10479;53.524;9.846;2024-02-21T12:56:06;38.47;;;14.52;;
20639;SDS011;10479;53.524;9.846;2024-02-21T12:58:32;36.83;;;14.20;;
20639;SDS011;10479;53.524;9.846;2024-02-21T13:00:58;31.35;;;14.13;;
20639;SDS011;10479;53.524;9.846;2024-02-21T13:03:23;32.75;;;13.30;;
20639;SDS011;10479;53.524;9.846;2024-02-21T13:05:49;35.45;;;12.77;;
20639;SDS011;10479;53.524;9.846;2024-02-21T13:08:14;29.90;;;13.38;;
20639;SDS011;10479;53.524;9.846;2024-02-21T13:10:40;28.95;;;12.63;;
20639;SDS011;10479;53.524;9.846;2024-02-21T13:13:05;27.25;;;13.15;;
20639;SDS011;10479;53.524;9.846;2024-02-21T13:15:30;28.70;;;11.95;;
20639;SDS011;10479;53.524;9.846;2024-02-21T13:17:56;28.30;;;12.23;;
20639;SDS011;10479;53.524;9.846;2024-02-21T13:20:25;32.85;;;12.85;;
20639;SDS011;10479;53.524;9.846;2024-02-21T13:22:51;30.60;;;12.40;;
20639;SDS011;10479;53.524;9.846;2024-02-21T13:25:17;27.38;;;11.85;;
20639;SDS011;10479;53.524;9.846;2024-02-21T13:27:45;24.98;;;10.73;;
20639;SDS011;10479;53.524;9.846;2024-02-21T13:30:11;35.47;;;12.82;;
20639;SDS011;10479;53.524;9.846;2024-02-21T13:32:37;28.08;;;11.45;;
20639;SDS011;10479;53.524;9.846;2024-02-21T13:35:03;30.77;;;12.07;;
20639;SDS011;10479;53.524;9.846;2024-02-21T13:37:28;26.35;;;11.00;;
20639;SDS011;10479;53.524;9.846;2024-02-21T13:39:54;25.20;;;11.27;;
20639;SDS011;10479;53.524;9.846;2024-02-21T13:42:20;25.60;;;11.27;;
20639;SDS011;10479;53.524;9.846;2024-02-21T13:44:45;27.52;;;10.85;;
20639;SDS011;10479;53.524;9.846;2024-02-21T13:47:14;30.42;;;11.70;;
20639;SDS011;10479;53.524;9.846;2024-02-21T13:49:40;28.80;;;10.73;;
20639;SDS011;10479;53.524;9.846;2024-02-21T13:52:06;24.80;;;10.25;;
20639;SDS011;10479;53.524;9.846;2024-02-21T13:54:31;25.23;;;10.77;;
20639;SDS011;10479;53.524;9.846;2024-02-21T13:56:57;25.67;;;10.77;;
20639;SDS011;10479;53.524;9.846;2024-02-21T13:59:22;28.77;;;10.85;;
20639;SDS011;10479;53.524;9.846;2024-02-21T14:01:47;26.35;;;9.70;;
20639;SDS011;10479;53.524;9.846;2024-02-21T14:04:13;23.15;;;9.38;;
20639;SDS011;10479;53.524;9.846;2024-02-21T14:06:39;22.77;;;9.68;;
20639;SDS011;10479;53.524;9.846;2024-02-21T14:09:11;22.65;;;9.40;;
20639;SDS011;10479;53.524;9.846;2024-02-21T14:11:37;20.45;;;9.45;;
20639;SDS011;10479;53.524;9.846;2024-02-21T14:14:06;21.55;;;9.35;;
20639;SDS011;10479;53.524;9.846;2024-02-21T14:16:32;16.33;;;7.97;;
20639;SDS011;10479;53.524;9.846;2024-02-21T14:18:58;20.58;;;9.15;;
20639;SDS011;10479;53.524;9.846;2024-02-21T14:21:23;21.80;;;9.43;;
20639;SDS011;10479;53.524;9.846;2024-02-21T14:23:49;24.17;;;8.75;;